KMTP/MTP METAR and TAF weather

Enter ICAO airport designator
Station Type Date Time Source
KMTP METAR 2020/09/23 17:54 UTC NOAA

KMTP 231754Z AUTO 24009KT 22/12 A2980 RMK AO1 SLP092 T02170117 10217 20172 58011


Station Type Date Time Source
KMTP Decoded METAR 2020/09/23 17:54 UTC NOAA

MONTAUK AIRPORT, NY, United States (KMTP) 41-04N 071-55W 2M
Sep 23, 2020 - 01:54 PM EDT / 2020.09.23 1754 UTC
Wind: from the WSW (240 degrees) at 10 MPH (9 KT):0
Temperature: 71.1 F (21.7 C)
Dew Point: 53.1 F (11.7 C)
Relative Humidity: 52%
Pressure (altimeter): 29.8 in. Hg (1009 hPa)
Pressure tendency: 0.03 inches (1.1 hPa) lower than three hours ago
ob: KMTP 231754Z AUTO 24009KT 22/12 A2980 RMK AO1 SLP092 T02170117 10217 20172 58011
cycle: 18

Station Type Date Time Source
KMTP TAF UTC NOAA

Error!

Example: see airport list